sensor_id;sensor_type;location;lat;lon;timestamp;temperature;humidity
21318;DHT22;10818;50.830;6.524;2022-08-21T00:00:29;16.20;99.90
21318;DHT22;10818;50.830;6.524;2022-08-21T00:05:32;16.20;99.90
21318;DHT22;10818;50.830;6.524;2022-08-21T00:10:34;16.10;99.90
21318;DHT22;10818;50.830;6.524;2022-08-21T00:15:36;16.00;99.90
21318;DHT22;10818;50.830;6.524;2022-08-21T00:20:38;16.00;99.90
21318;DHT22;10818;50.830;6.524;2022-08-21T00:25:40;16.00;99.90
21318;DHT22;10818;50.830;6.524;2022-08-21T00:30:42;15.90;99.90
21318;DHT22;10818;50.830;6.524;2022-08-21T00:35:43;15.90;99.90
21318;DHT22;10818;50.830;6.524;2022-08-21T00:40:50;15.80;99.90
21318;DHT22;10818;50.830;6.524;2022-08-21T00:45:51;15.80;99.90
21318;DHT22;10818;50.830;6.524;2022-08-21T00:51:20;15.80;99.90
21318;DHT22;10818;50.830;6.524;2022-08-21T00:56:24;15.70;99.90
21318;DHT22;10818;50.830;6.524;2022-08-21T01:01:25;15.70;99.90
21318;DHT22;10818;50.830;6.524;2022-08-21T01:06:26;15.60;99.90
21318;DHT22;10818;50.830;6.524;2022-08-21T01:11:27;15.60;99.90
21318;DHT22;10818;50.830;6.524;2022-08-21T01:16:28;15.50;99.90
21318;DHT22;10818;50.830;6.524;2022-08-21T01:21:29;15.50;99.90
21318;DHT22;10818;50.830;6.524;2022-08-21T01:26:34;15.50;99.90
21318;DHT22;10818;50.830;6.524;2022-08-21T01:31:35;15.30;99.90
21318;DHT22;10818;50.830;6.524;2022-08-21T01:36:37;15.30;99.90
21318;DHT22;10818;50.830;6.524;2022-08-21T01:41:38;15.30;99.90
21318;DHT22;10818;50.830;6.524;2022-08-21T01:46:38;15.20;99.90
21318;DHT22;10818;50.830;6.524;2022-08-21T01:51:39;15.10;99.90
21318;DHT22;10818;50.830;6.524;2022-08-21T01:56:42;15.10;99.90
21318;DHT22;10818;50.830;6.524;2022-08-21T02:01:43;15.10;99.90
21318;DHT22;10818;50.830;6.524;2022-08-21T02:06:44;15.10;99.90
21318;DHT22;10818;50.830;6.524;2022-08-21T02:11:44;15.00;99.90
21318;DHT22;10818;50.830;6.524;2022-08-21T02:16:45;15.00;99.90
21318;DHT22;10818;50.830;6.524;2022-08-21T02:21:46;15.00;99.90
21318;DHT22;10818;50.830;6.524;2022-08-21T02:26:47;15.00;99.90
21318;DHT22;10818;50.830;6.524;2022-08-21T02:31:47;15.00;99.90
21318;DHT22;10818;50.830;6.524;2022-08-21T02:36:48;15.00;99.90
21318;DHT22;10818;50.830;6.524;2022-08-21T02:41:48;14.90;99.90
21318;DHT22;10818;50.830;6.524;2022-08-21T02:46:49;14.80;99.90
21318;DHT22;10818;50.830;6.524;2022-08-21T02:51:49;14.70;99.90
21318;DHT22;10818;50.830;6.524;2022-08-21T02:56:50;14.70;99.90
21318;DHT22;10818;50.830;6.524;2022-08-21T03:01:50;14.70;99.90
21318;DHT22;10818;50.830;6.524;2022-08-21T03:06:51;14.70;99.90
21318;DHT22;10818;50.830;6.524;2022-08-21T03:11:51;14.70;99.90
21318;DHT22;10818;50.830;6.524;2022-08-21T03:16:52;14.60;99.90
21318;DHT22;10818;50.830;6.524;2022-08-21T03:21:52;14.50;99.90
21318;DHT22;10818;50.830;6.524;2022-08-21T03:26:53;14.60;99.90
21318;DHT22;10818;50.830;6.524;2022-08-21T03:31:53;14.60;99.90
21318;DHT22;10818;50.830;6.524;2022-08-21T03:36:54;14.50;99.90
21318;DHT22;10818;50.830;6.524;2022-08-21T03:41:55;14.50;99.90
21318;DHT22;10818;50.830;6.524;2022-08-21T03:46:56;14.50;99.90
21318;DHT22;10818;50.830;6.524;2022-08-21T03:51:57;14.40;99.90
21318;DHT22;10818;50.830;6.524;2022-08-21T03:56:58;14.30;99.90
21318;DHT22;10818;50.830;6.524;2022-08-21T04:02:01;14.20;99.90
21318;DHT22;10818;50.830;6.524;2022-08-21T04:07:02;14.20;99.90
21318;DHT22;10818;50.830;6.524;2022-08-21T04:12:03;14.20;99.90
21318;DHT22;10818;50.830;6.524;2022-08-21T04:17:04;14.10;99.90
21318;DHT22;10818;50.830;6.524;2022-08-21T04:22:05;14.00;99.90
21318;DHT22;10818;50.830;6.524;2022-08-21T04:27:06;14.00;99.90
21318;DHT22;10818;50.830;6.524;2022-08-21T04:32:06;14.00;99.90
21318;DHT22;10818;50.830;6.524;2022-08-21T04:37:07;14.00;99.90
21318;DHT22;10818;50.830;6.524;2022-08-21T04:42:07;14.00;99.90
21318;DHT22;10818;50.830;6.524;2022-08-21T04:47:09;14.00;99.90
21318;DHT22;10818;50.830;6.524;2022-08-21T04:52:11;14.10;99.90
21318;DHT22;10818;50.830;6.524;2022-08-21T04:57:14;14.20;99.90
21318;DHT22;10818;50.830;6.524;2022-08-21T05:02:16;14.30;99.90
21318;DHT22;10818;50.830;6.524;2022-08-21T05:07:22;14.40;99.90
21318;DHT22;10818;50.830;6.524;2022-08-21T05:12:24;14.40;99.90
21318;DHT22;10818;50.830;6.524;2022-08-21T05:17:25;14.40;99.90
21318;DHT22;10818;50.830;6.524;2022-08-21T05:22:25;14.50;99.90
21318;DHT22;10818;50.830;6.524;2022-08-21T05:27:26;14.60;99.90
21318;DHT22;10818;50.830;6.524;2022-08-21T05:32:29;14.70;99.90
21318;DHT22;10818;50.830;6.524;2022-08-21T05:37:30;14.80;99.90
21318;DHT22;10818;50.830;6.524;2022-08-21T05:42:31;15.00;99.90
21318;DHT22;10818;50.830;6.524;2022-08-21T05:47:32;15.20;99.90
21318;DHT22;10818;50.830;6.524;2022-08-21T05:52:32;15.40;99.90
21318;DHT22;10818;50.830;6.524;2022-08-21T05:57:33;15.50;99.90
21318;DHT22;10818;50.830;6.524;2022-08-21T06:02:34;15.70;99.90
21318;DHT22;10818;50.830;6.524;2022-08-21T06:07:34;15.90;99.90
21318;DHT22;10818;50.830;6.524;2022-08-21T06:12:35;16.10;99.90
21318;DHT22;10818;50.830;6.524;2022-08-21T06:17:35;16.30;99.90
21318;DHT22;10818;50.830;6.524;2022-08-21T06:22:36;16.60;99.90
21318;DHT22;10818;50.830;6.524;2022-08-21T06:27:37;16.80;99.90
21318;DHT22;10818;50.830;6.524;2022-08-21T06:32:37;17.10;99.90
21318;DHT22;10818;50.830;6.524;2022-08-21T06:37:38;17.30;99.90
21318;DHT22;10818;50.830;6.524;2022-08-21T06:42:39;17.50;99.90
21318;DHT22;10818;50.830;6.524;2022-08-21T06:47:40;17.90;99.90
21318;DHT22;10818;50.830;6.524;2022-08-21T06:52:40;18.30;99.90
21318;DHT22;10818;50.830;6.524;2022-08-21T06:57:41;18.80;99.90
21318;DHT22;10818;50.830;6.524;2022-08-21T07:02:41;19.40;99.90
21318;DHT22;10818;50.830;6.524;2022-08-21T07:07:42;22.00;99.90
21318;DHT22;10818;50.830;6.524;2022-08-21T07:12:43;28.30;99.90
21318;DHT22;10818;50.830;6.524;2022-08-21T07:17:43;32.90;96.60
21318;DHT22;10818;50.830;6.524;2022-08-21T07:22:44;35.80;88.40
21318;DHT22;10818;50.830;6.524;2022-08-21T07:27:44;38.30;75.40
21318;DHT22;10818;50.830;6.524;2022-08-21T07:32:45;39.90;65.20
21318;DHT22;10818;50.830;6.524;2022-08-21T07:37:46;41.40;59.70
21318;DHT22;10818;50.830;6.524;2022-08-21T07:42:48;42.20;55.50
21318;DHT22;10818;50.830;6.524;2022-08-21T07:47:51;43.50;51.30
21318;DHT22;10818;50.830;6.524;2022-08-21T07:52:52;45.30;47.10
21318;DHT22;10818;50.830;6.524;2022-08-21T07:57:53;46.00;43.20
21318;DHT22;10818;50.830;6.524;2022-08-21T08:02:54;47.30;40.90
21318;DHT22;10818;50.830;6.524;2022-08-21T08:07:54;47.50;38.60
21318;DHT22;10818;50.830;6.524;2022-08-21T08:12:55;48.10;37.00
21318;DHT22;10818;50.830;6.524;2022-08-21T08:17:56;48.70;35.20
21318;DHT22;10818;50.830;6.524;2022-08-21T08:22:57;48.30;34.10
21318;DHT22;10818;50.830;6.524;2022-08-21T08:27:57;47.80;33.80
21318;DHT22;10818;50.830;6.524;2022-08-21T08:32:58;48.50;33.40
21318;DHT22;10818;50.830;6.524;2022-08-21T08:37:59;46.20;35.10
21318;DHT22;10818;50.830;6.524;2022-08-21T08:43:00;43.60;37.60
21318;DHT22;10818;50.830;6.524;2022-08-21T08:48:01;40.90;41.00
21318;DHT22;10818;50.830;6.524;2022-08-21T08:53:04;37.30;44.50
21318;DHT22;10818;50.830;6.524;2022-08-21T08:58:06;34.20;48.30
21318;DHT22;10818;50.830;6.524;2022-08-21T09:03:09;32.50;51.50
21318;DHT22;10818;50.830;6.524;2022-08-21T09:08:14;31.40;53.70
21318;DHT22;10818;50.830;6.524;2022-08-21T09:18:35;29.80;56.60
21318;DHT22;10818;50.830;6.524;2022-08-21T09:28:53;29.30;59.50
21318;DHT22;10818;50.830;6.524;2022-08-21T09:34:01;29.20;59.60
21318;DHT22;10818;50.830;6.524;2022-08-21T09:39:02;28.90;60.40
21318;DHT22;10818;50.830;6.524;2022-08-21T09:44:03;29.10;62.00
21318;DHT22;10818;50.830;6.524;2022-08-21T09:49:04;29.10;59.70
21318;DHT22;10818;50.830;6.524;2022-08-21T09:59:15;28.60;62.30
21318;DHT22;10818;50.830;6.524;2022-08-21T10:04:19;28.50;62.20
21318;DHT22;10818;50.830;6.524;2022-08-21T10:09:20;28.70;61.70
21318;DHT22;10818;50.830;6.524;2022-08-21T10:25:01;28.70;62.90
21318;DHT22;10818;50.830;6.524;2022-08-21T10:35:08;28.40;63.30
21318;DHT22;10818;50.830;6.524;2022-08-21T10:45:15;28.60;64.20
21318;DHT22;10818;50.830;6.524;2022-08-21T10:50:25;28.70;64.80
21318;DHT22;10818;50.830;6.524;2022-08-21T11:05:46;29.00;64.00
21318;DHT22;10818;50.830;6.524;2022-08-21T11:10:50;29.20;63.40
21318;DHT22;10818;50.830;6.524;2022-08-21T11:15:55;29.40;62.00
21318;DHT22;10818;50.830;6.524;2022-08-21T11:20:59;29.40;61.50
21318;DHT22;10818;50.830;6.524;2022-08-21T11:26:07;29.40;61.30
21318;DHT22;10818;50.830;6.524;2022-08-21T11:36:15;29.30;61.50
21318;DHT22;10818;50.830;6.524;2022-08-21T11:41:29;29.10;61.20
21318;DHT22;10818;50.830;6.524;2022-08-21T11:51:37;29.00;63.30
21318;DHT22;10818;50.830;6.524;2022-08-21T11:56:44;28.90;61.90
21318;DHT22;10818;50.830;6.524;2022-08-21T12:01:45;28.80;62.80
21318;DHT22;10818;50.830;6.524;2022-08-21T12:06:46;28.60;63.90
21318;DHT22;10818;50.830;6.524;2022-08-21T12:11:48;28.40;63.90
21318;DHT22;10818;50.830;6.524;2022-08-21T12:16:49;27.90;66.10
21318;DHT22;10818;50.830;6.524;2022-08-21T12:26:59;28.00;64.80
21318;DHT22;10818;50.830;6.524;2022-08-21T12:32:01;28.10;63.40
21318;DHT22;10818;50.830;6.524;2022-08-21T12:42:32;27.90;63.00
21318;DHT22;10818;50.830;6.524;2022-08-21T12:48:09;27.90;63.60
21318;DHT22;10818;50.830;6.524;2022-08-21T12:53:04;27.90;64.60
21318;DHT22;10818;50.830;6.524;2022-08-21T12:58:06;27.40;64.60
21318;DHT22;10818;50.830;6.524;2022-08-21T13:03:08;27.20;65.10
21318;DHT22;10818;50.830;6.524;2022-08-21T13:08:11;27.80;65.80
21318;DHT22;10818;50.830;6.524;2022-08-21T13:13:24;27.90;64.60
21318;DHT22;10818;50.830;6.524;2022-08-21T13:18:29;27.80;65.70
21318;DHT22;10818;50.830;6.524;2022-08-21T13:23:30;27.80;65.80
21318;DHT22;10818;50.830;6.524;2022-08-21T13:28:35;28.10;65.10
21318;DHT22;10818;50.830;6.524;2022-08-21T13:33:39;28.30;64.20
21318;DHT22;10818;50.830;6.524;2022-08-21T13:38:42;28.20;62.40
21318;DHT22;10818;50.830;6.524;2022-08-21T13:43:55;27.90;63.00
21318;DHT22;10818;50.830;6.524;2022-08-21T13:48:56;27.90;63.20
21318;DHT22;10818;50.830;6.524;2022-08-21T13:53:58;27.60;63.10
21318;DHT22;10818;50.830;6.524;2022-08-21T13:59:00;27.80;64.50
21318;DHT22;10818;50.830;6.524;2022-08-21T14:04:14;27.70;64.30
21318;DHT22;10818;50.830;6.524;2022-08-21T14:09:34;27.70;64.90
21318;DHT22;10818;50.830;6.524;2022-08-21T14:14:35;27.20;66.50
21318;DHT22;10818;50.830;6.524;2022-08-21T14:24:39;27.00;66.10
21318;DHT22;10818;50.830;6.524;2022-08-21T14:29:41;27.10;66.80
21318;DHT22;10818;50.830;6.524;2022-08-21T14:34:42;27.00;66.50
21318;DHT22;10818;50.830;6.524;2022-08-21T14:39:42;27.20;66.70
21318;DHT22;10818;50.830;6.524;2022-08-21T14:44:43;26.80;66.60
21318;DHT22;10818;50.830;6.524;2022-08-21T14:49:44;26.80;66.10
21318;DHT22;10818;50.830;6.524;2022-08-21T14:54:45;27.10;66.30
21318;DHT22;10818;50.830;6.524;2022-08-21T14:59:45;27.80;65.50
21318;DHT22;10818;50.830;6.524;2022-08-21T15:04:46;28.00;64.70
21318;DHT22;10818;50.830;6.524;2022-08-21T15:09:47;28.10;64.80
21318;DHT22;10818;50.830;6.524;2022-08-21T15:14:47;27.60;64.00
21318;DHT22;10818;50.830;6.524;2022-08-21T15:19:48;27.60;63.10
21318;DHT22;10818;50.830;6.524;2022-08-21T15:24:48;27.90;62.10
21318;DHT22;10818;50.830;6.524;2022-08-21T15:29:49;27.70;62.20
21318;DHT22;10818;50.830;6.524;2022-08-21T15:34:53;27.30;60.90
21318;DHT22;10818;50.830;6.524;2022-08-21T15:39:53;27.50;63.00
21318;DHT22;10818;50.830;6.524;2022-08-21T15:44:55;27.40;61.00
21318;DHT22;10818;50.830;6.524;2022-08-21T15:49:57;27.90;61.40
21318;DHT22;10818;50.830;6.524;2022-08-21T15:54:58;27.50;61.30
21318;DHT22;10818;50.830;6.524;2022-08-21T16:00:02;27.40;61.30
21318;DHT22;10818;50.830;6.524;2022-08-21T16:05:12;27.20;61.40
21318;DHT22;10818;50.830;6.524;2022-08-21T16:10:13;26.80;60.90
21318;DHT22;10818;50.830;6.524;2022-08-21T16:15:15;26.40;62.00
21318;DHT22;10818;50.830;6.524;2022-08-21T16:20:20;26.20;62.60
21318;DHT22;10818;50.830;6.524;2022-08-21T16:25:21;26.20;64.70
21318;DHT22;10818;50.830;6.524;2022-08-21T16:30:22;25.90;65.50
21318;DHT22;10818;50.830;6.524;2022-08-21T16:35:23;25.70;66.30
21318;DHT22;10818;50.830;6.524;2022-08-21T16:40:24;25.60;66.60
21318;DHT22;10818;50.830;6.524;2022-08-21T16:45:27;25.30;66.40
21318;DHT22;10818;50.830;6.524;2022-08-21T16:50:27;25.30;67.80
21318;DHT22;10818;50.830;6.524;2022-08-21T16:55:28;25.50;70.80
21318;DHT22;10818;50.830;6.524;2022-08-21T17:00:29;25.50;70.80
21318;DHT22;10818;50.830;6.524;2022-08-21T17:05:30;25.40;71.70
21318;DHT22;10818;50.830;6.524;2022-08-21T17:10:30;25.10;72.90
21318;DHT22;10818;50.830;6.524;2022-08-21T17:15:34;24.90;74.40
21318;DHT22;10818;50.830;6.524;2022-08-21T17:20:35;24.50;74.70
21318;DHT22;10818;50.830;6.524;2022-08-21T17:25:37;24.50;76.00
21318;DHT22;10818;50.830;6.524;2022-08-21T17:30:40;24.40;77.00
21318;DHT22;10818;50.830;6.524;2022-08-21T17:35:45;24.20;77.60
21318;DHT22;10818;50.830;6.524;2022-08-21T17:40:46;24.10;78.90
21318;DHT22;10818;50.830;6.524;2022-08-21T17:45:47;24.00;79.30
21318;DHT22;10818;50.830;6.524;2022-08-21T17:50:47;24.10;80.20
21318;DHT22;10818;50.830;6.524;2022-08-21T17:55:49;24.00;80.10
21318;DHT22;10818;50.830;6.524;2022-08-21T18:00:50;23.90;80.50
21318;DHT22;10818;50.830;6.524;2022-08-21T18:05:51;23.80;81.50
21318;DHT22;10818;50.830;6.524;2022-08-21T18:10:54;23.50;81.60
21318;DHT22;10818;50.830;6.524;2022-08-21T18:15:58;23.50;83.00
21318;DHT22;10818;50.830;6.524;2022-08-21T18:20:59;23.30;82.80
21318;DHT22;10818;50.830;6.524;2022-08-21T18:26:00;23.20;84.30
21318;DHT22;10818;50.830;6.524;2022-08-21T18:31:00;23.10;83.90
21318;DHT22;10818;50.830;6.524;2022-08-21T18:36:01;22.80;85.30
21318;DHT22;10818;50.830;6.524;2022-08-21T18:41:01;22.80;85.10
21318;DHT22;10818;50.830;6.524;2022-08-21T18:46:03;22.60;86.50
21318;DHT22;10818;50.830;6.524;2022-08-21T18:51:04;22.40;86.60
21318;DHT22;10818;50.830;6.524;2022-08-21T18:56:06;22.20;87.80
21318;DHT22;10818;50.830;6.524;2022-08-21T19:01:07;22.20;88.60
21318;DHT22;10818;50.830;6.524;2022-08-21T19:06:08;22.00;89.30
21318;DHT22;10818;50.830;6.524;2022-08-21T19:11:08;21.90;90.20
21318;DHT22;10818;50.830;6.524;2022-08-21T19:16:09;21.80;90.90
21318;DHT22;10818;50.830;6.524;2022-08-21T19:21:09;21.70;90.70
21318;DHT22;10818;50.830;6.524;2022-08-21T19:26:10;21.70;91.20
21318;DHT22;10818;50.830;6.524;2022-08-21T19:36:11;21.60;93.10
21318;DHT22;10818;50.830;6.524;2022-08-21T19:41:13;21.50;93.30
21318;DHT22;10818;50.830;6.524;2022-08-21T19:46:17;21.50;92.90
21318;DHT22;10818;50.830;6.524;2022-08-21T19:51:19;21.40;93.40
21318;DHT22;10818;50.830;6.524;2022-08-21T19:56:22;21.30;93.90
21318;DHT22;10818;50.830;6.524;2022-08-21T20:01:23;21.30;94.30
21318;DHT22;10818;50.830;6.524;2022-08-21T20:06:24;21.30;95.40
21318;DHT22;10818;50.830;6.524;2022-08-21T20:11:29;21.20;98.10
21318;DHT22;10818;50.830;6.524;2022-08-21T20:16:30;21.00;99.90
21318;DHT22;10818;50.830;6.524;2022-08-21T20:21:32;21.00;98.80
21318;DHT22;10818;50.830;6.524;2022-08-21T20:26:32;20.90;99.40
21318;DHT22;10818;50.830;6.524;2022-08-21T20:31:33;20.90;99.90
21318;DHT22;10818;50.830;6.524;2022-08-21T20:36:33;20.80;99.90
21318;DHT22;10818;50.830;6.524;2022-08-21T20:41:34;20.80;99.90
21318;DHT22;10818;50.830;6.524;2022-08-21T20:46:35;20.70;99.90
21318;DHT22;10818;50.830;6.524;2022-08-21T20:51:40;20.70;99.90
21318;DHT22;10818;50.830;6.524;2022-08-21T21:07:22;20.50;99.90
21318;DHT22;10818;50.830;6.524;2022-08-21T21:12:33;20.40;99.90
21318;DHT22;10818;50.830;6.524;2022-08-21T21:17:41;20.40;99.90
21318;DHT22;10818;50.830;6.524;2022-08-21T21:22:51;20.30;99.90
21318;DHT22;10818;50.830;6.524;2022-08-21T21:27:56;20.30;99.90
21318;DHT22;10818;50.830;6.524;2022-08-21T21:33:00;20.20;99.90
21318;DHT22;10818;50.830;6.524;2022-08-21T21:43:37;20.10;99.90
21318;DHT22;10818;50.830;6.524;2022-08-21T21:48:53;20.20;99.90
21318;DHT22;10818;50.830;6.524;2022-08-21T21:54:08;20.20;99.90
21318;DHT22;10818;50.830;6.524;2022-08-21T21:59:21;20.10;99.90
21318;DHT22;10818;50.830;6.524;2022-08-21T22:09:43;19.90;99.90
21318;DHT22;10818;50.830;6.524;2022-08-21T22:14:44;19.80;99.90
21318;DHT22;10818;50.830;6.524;2022-08-21T22:19:45;19.80;99.90
21318;DHT22;10818;50.830;6.524;2022-08-21T22:24:51;19.80;99.90
21318;DHT22;10818;50.830;6.524;2022-08-21T22:29:55;19.70;99.90
21318;DHT22;10818;50.830;6.524;2022-08-21T22:35:17;19.60;99.90
21318;DHT22;10818;50.830;6.524;2022-08-21T22:40:44;19.60;99.90
21318;DHT22;10818;50.830;6.524;2022-08-21T22:46:08;19.50;99.90
21318;DHT22;10818;50.830;6.524;2022-08-21T22:51:26;19.50;99.90
21318;DHT22;10818;50.830;6.524;2022-08-21T22:56:36;19.40;99.90
21318;DHT22;10818;50.830;6.524;2022-08-21T23:01:42;19.50;99.90
21318;DHT22;10818;50.830;6.524;2022-08-21T23:06:51;19.40;99.90
21318;DHT22;10818;50.830;6.524;2022-08-21T23:11:53;19.30;99.90
21318;DHT22;10818;50.830;6.524;2022-08-21T23:16:57;19.20;99.90
21318;DHT22;10818;50.830;6.524;2022-08-21T23:59:32;18.90;99.90
